sensor_id;sensor_type;location;lat;lon;timestamp;temperature;humidity
61400;DHT22;47269;48.182;-1.946;2023-02-28T06:01:49;0.30;99.90
61400;DHT22;47269;48.182;-1.946;2023-02-28T06:04:17;0.30;99.90
61400;DHT22;47269;48.182;-1.946;2023-02-28T06:06:48;0.30;99.90
61400;DHT22;47269;48.182;-1.946;2023-02-28T06:09:14;0.30;99.90
61400;DHT22;47269;48.182;-1.946;2023-02-28T06:11:41;0.30;99.90
61400;DHT22;47269;48.182;-1.946;2023-02-28T06:14:07;0.30;99.90
61400;DHT22;47269;48.182;-1.946;2023-02-28T06:16:34;0.30;99.90
61400;DHT22;47269;48.182;-1.946;2023-02-28T06:19:02;0.30;99.90
61400;DHT22;47269;48.182;-1.946;2023-02-28T06:21:29;0.30;99.90
61400;DHT22;47269;48.182;-1.946;2023-02-28T06:23:55;0.30;99.90
61400;DHT22;47269;48.182;-1.946;2023-02-28T06:26:21;0.30;99.90
61400;DHT22;47269;48.182;-1.946;2023-02-28T06:28:47;0.30;99.90
61400;DHT22;47269;48.182;-1.946;2023-02-28T06:31:15;0.30;99.90
61400;DHT22;47269;48.182;-1.946;2023-02-28T06:33:42;0.30;99.90
61400;DHT22;47269;48.182;-1.946;2023-02-28T06:36:09;0.30;99.90
61400;DHT22;47269;48.182;-1.946;2023-02-28T06:38:36;0.30;99.90
61400;DHT22;47269;48.182;-1.946;2023-02-28T06:41:02;0.30;99.90
61400;DHT22;47269;48.182;-1.946;2023-02-28T06:43:30;0.30;99.90
61400;DHT22;47269;48.182;-1.946;2023-02-28T06:45:57;0.20;99.90
61400;DHT22;47269;48.182;-1.946;2023-02-28T06:48:24;0.20;99.90
61400;DHT22;47269;48.182;-1.946;2023-02-28T06:50:50;0.20;99.90
61400;DHT22;47269;48.182;-1.946;2023-02-28T06:53:15;0.20;99.90
61400;DHT22;47269;48.182;-1.946;2023-02-28T06:55:41;0.10;99.90
61400;DHT22;47269;48.182;-1.946;2023-02-28T06:58:07;0.10;99.90
61400;DHT22;47269;48.182;-1.946;2023-02-28T07:00:45;0.10;99.90
61400;DHT22;47269;48.182;-1.946;2023-02-28T07:03:11;0.00;99.90
61400;DHT22;47269;48.182;-1.946;2023-02-28T07:05:38;0.00;99.90
61400;DHT22;47269;48.182;-1.946;2023-02-28T07:08:05;0.00;99.90
61400;DHT22;47269;48.182;-1.946;2023-02-28T07:10:32;-0.10;99.90
61400;DHT22;47269;48.182;-1.946;2023-02-28T07:12:59;-0.10;99.90
61400;DHT22;47269;48.182;-1.946;2023-02-28T07:15:24;-0.10;99.90
61400;DHT22;47269;48.182;-1.946;2023-02-28T07:17:50;-0.10;99.90
61400;DHT22;47269;48.182;-1.946;2023-02-28T07:20:16;-0.10;99.90
61400;DHT22;47269;48.182;-1.946;2023-02-28T07:22:42;0.00;99.90
61400;DHT22;47269;48.182;-1.946;2023-02-28T07:25:08;0.00;99.90
61400;DHT22;47269;48.182;-1.946;2023-02-28T07:27:34;-0.10;99.90
61400;DHT22;47269;48.182;-1.946;2023-02-28T07:30:00;-0.10;99.90
61400;DHT22;47269;48.182;-1.946;2023-02-28T07:32:27;-0.10;99.90
61400;DHT22;47269;48.182;-1.946;2023-02-28T07:34:53;0.00;99.90
61400;DHT22;47269;48.182;-1.946;2023-02-28T07:37:19;0.00;99.90
61400;DHT22;47269;48.182;-1.946;2023-02-28T07:39:45;0.10;99.90
61400;DHT22;47269;48.182;-1.946;2023-02-28T07:42:11;0.10;99.90
61400;DHT22;47269;48.182;-1.946;2023-02-28T07:44:41;0.10;99.90
61400;DHT22;47269;48.182;-1.946;2023-02-28T07:47:11;0.10;99.90
61400;DHT22;47269;48.182;-1.946;2023-02-28T07:49:37;0.20;99.90
61400;DHT22;47269;48.182;-1.946;2023-02-28T07:52:06;0.30;99.90
61400;DHT22;47269;48.182;-1.946;2023-02-28T07:54:33;0.20;99.90
61400;DHT22;47269;48.182;-1.946;2023-02-28T07:56:59;0.40;99.90
61400;DHT22;47269;48.182;-1.946;2023-02-28T07:59:24;0.40;99.90
61400;DHT22;47269;48.182;-1.946;2023-02-28T08:01:50;0.50;99.90
61400;DHT22;47269;48.182;-1.946;2023-02-28T08:04:17;0.50;99.90
61400;DHT22;47269;48.182;-1.946;2023-02-28T08:06:43;0.70;99.90
61400;DHT22;47269;48.182;-1.946;2023-02-28T08:09:09;0.80;99.90
61400;DHT22;47269;48.182;-1.946;2023-02-28T08:11:35;0.90;99.90
61400;DHT22;47269;48.182;-1.946;2023-02-28T08:14:02;1.00;99.90
61400;DHT22;47269;48.182;-1.946;2023-02-28T08:16:27;1.10;99.90
61400;DHT22;47269;48.182;-1.946;2023-02-28T08:18:53;1.10;99.90
61400;DHT22;47269;48.182;-1.946;2023-02-28T08:21:20;1.10;99.90
61400;DHT22;47269;48.182;-1.946;2023-02-28T08:23:49;1.20;99.90
61400;DHT22;47269;48.182;-1.946;2023-02-28T08:26:16;1.30;99.90
61400;DHT22;47269;48.182;-1.946;2023-02-28T08:28:42;1.40;99.90
61400;DHT22;47269;48.182;-1.946;2023-02-28T08:31:11;1.50;99.90
61400;DHT22;47269;48.182;-1.946;2023-02-28T08:33:37;1.50;99.90
61400;DHT22;47269;48.182;-1.946;2023-02-28T08:36:05;1.60;99.90
61400;DHT22;47269;48.182;-1.946;2023-02-28T08:38:31;1.70;99.90
61400;DHT22;47269;48.182;-1.946;2023-02-28T08:40:59;1.70;99.90
61400;DHT22;47269;48.182;-1.946;2023-02-28T08:43:25;1.80;99.90
61400;DHT22;47269;48.182;-1.946;2023-02-28T08:45:52;1.90;99.90
61400;DHT22;47269;48.182;-1.946;2023-02-28T08:48:18;2.00;99.90
61400;DHT22;47269;48.182;-1.946;2023-02-28T08:50:54;2.10;99.90
61400;DHT22;47269;48.182;-1.946;2023-02-28T08:53:19;2.20;99.90
61400;DHT22;47269;48.182;-1.946;2023-02-28T08:55:45;2.40;99.90
61400;DHT22;47269;48.182;-1.946;2023-02-28T08:58:11;2.60;99.90
61400;DHT22;47269;48.182;-1.946;2023-02-28T09:00:37;2.90;99.90
61400;DHT22;47269;48.182;-1.946;2023-02-28T09:03:02;3.30;99.90
61400;DHT22;47269;48.182;-1.946;2023-02-28T09:05:28;3.70;99.90
61400;DHT22;47269;48.182;-1.946;2023-02-28T09:07:55;4.30;99.90
61400;DHT22;47269;48.182;-1.946;2023-02-28T09:10:20;5.10;99.90
61400;DHT22;47269;48.182;-1.946;2023-02-28T09:12:46;5.50;99.90
61400;DHT22;47269;48.182;-1.946;2023-02-28T09:15:12;6.10;99.90
61400;DHT22;47269;48.182;-1.946;2023-02-28T09:17:38;6.40;99.90
61400;DHT22;47269;48.182;-1.946;2023-02-28T09:20:05;6.70;99.90
61400;DHT22;47269;48.182;-1.946;2023-02-28T09:22:30;7.70;99.90
61400;DHT22;47269;48.182;-1.946;2023-02-28T09:24:56;8.10;99.90
61400;DHT22;47269;48.182;-1.946;2023-02-28T09:27:22;8.20;99.90
61400;DHT22;47269;48.182;-1.946;2023-02-28T09:29:49;8.40;99.90
61400;DHT22;47269;48.182;-1.946;2023-02-28T09:32:14;8.10;99.90
61400;DHT22;47269;48.182;-1.946;2023-02-28T09:34:41;9.10;99.90
61400;DHT22;47269;48.182;-1.946;2023-02-28T09:37:06;9.70;99.90
61400;DHT22;47269;48.182;-1.946;2023-02-28T09:39:32;9.90;99.90
61400;DHT22;47269;48.182;-1.946;2023-02-28T09:41:58;10.40;99.90
61400;DHT22;47269;48.182;-1.946;2023-02-28T09:47:04;11.70;99.90
61400;DHT22;47269;48.182;-1.946;2023-02-28T09:49:38;12.20;99.90
61400;DHT22;47269;48.182;-1.946;2023-02-28T09:52:10;12.90;99.90
61400;DHT22;47269;48.182;-1.946;2023-02-28T09:54:37;12.70;99.90
61400;DHT22;47269;48.182;-1.946;2023-02-28T09:57:10;12.50;99.90
61400;DHT22;47269;48.182;-1.946;2023-02-28T10:02:57;10.90;99.90
61400;DHT22;47269;48.182;-1.946;2023-02-28T10:05:52;11.20;99.90
61400;DHT22;47269;48.182;-1.946;2023-02-28T10:08:27;12.00;99.90
61400;DHT22;47269;48.182;-1.946;2023-02-28T10:11:00;12.50;99.90
61400;DHT22;47269;48.182;-1.946;2023-02-28T10:16:08;12.40;99.90
61400;DHT22;47269;48.182;-1.946;2023-02-28T10:18:51;11.70;99.90
61400;DHT22;47269;48.182;-1.946;2023-02-28T10:21:26;12.60;99.90
61400;DHT22;47269;48.182;-1.946;2023-02-28T10:23:59;13.60;99.80
61400;DHT22;47269;48.182;-1.946;2023-02-28T10:26:29;13.70;97.90
61400;DHT22;47269;48.182;-1.946;2023-02-28T10:28:55;13.40;97.30
61400;DHT22;47269;48.182;-1.946;2023-02-28T10:31:21;11.70;97.10
61400;DHT22;47269;48.182;-1.946;2023-02-28T10:33:47;13.10;96.90
61400;DHT22;47269;48.182;-1.946;2023-02-28T10:36:19;14.20;94.90
61400;DHT22;47269;48.182;-1.946;2023-02-28T10:38:46;14.90;93.30
61400;DHT22;47269;48.182;-1.946;2023-02-28T10:41:17;13.10;93.00
61400;DHT22;47269;48.182;-1.946;2023-02-28T10:43:52;14.20;93.90
61400;DHT22;47269;48.182;-1.946;2023-02-28T10:46:20;13.40;92.20
61400;DHT22;47269;48.182;-1.946;2023-02-28T10:49:04;13.70;91.50
61400;DHT22;47269;48.182;-1.946;2023-02-28T10:51:38;15.50;90.40
61400;DHT22;47269;48.182;-1.946;2023-02-28T10:54:05;15.90;85.80
61400;DHT22;47269;48.182;-1.946;2023-02-28T10:56:31;16.20;84.50
61400;DHT22;47269;48.182;-1.946;2023-02-28T10:59:27;17.00;79.20
61400;DHT22;47269;48.182;-1.946;2023-02-28T11:01:54;16.90;76.00
61400;DHT22;47269;48.182;-1.946;2023-02-28T11:04:33;15.70;77.50
61400;DHT22;47269;48.182;-1.946;2023-02-28T11:07:19;15.80;78.20
61400;DHT22;47269;48.182;-1.946;2023-02-28T11:09:50;17.20;73.30
61400;DHT22;47269;48.182;-1.946;2023-02-28T11:12:38;17.00;69.60
61400;DHT22;47269;48.182;-1.946;2023-02-28T11:15:23;17.70;69.60
61400;DHT22;47269;48.182;-1.946;2023-02-28T11:18:24;15.30;68.70
61400;DHT22;47269;48.182;-1.946;2023-02-28T11:20:52;15.30;70.80
61400;DHT22;47269;48.182;-1.946;2023-02-28T11:23:20;15.30;69.80
61400;DHT22;47269;48.182;-1.946;2023-02-28T11:25:52;17.20;70.70
61400;DHT22;47269;48.182;-1.946;2023-02-28T11:33:49;18.00;65.10
61400;DHT22;47269;48.182;-1.946;2023-02-28T11:36:27;18.30;65.60
61400;DHT22;47269;48.182;-1.946;2023-02-28T11:38:59;18.40;63.90
61400;DHT22;47269;48.182;-1.946;2023-02-28T11:44:28;17.40;66.50
61400;DHT22;47269;48.182;-1.946;2023-02-28T11:47:03;16.40;65.70
61400;DHT22;47269;48.182;-1.946;2023-02-28T11:50:21;16.10;64.90
61400;DHT22;47269;48.182;-1.946;2023-02-28T11:52:21;15.90;64.80
61400;DHT22;47269;48.182;-1.946;2023-02-28T12:08:17;18.30;67.80
61400;DHT22;47269;48.182;-1.946;2023-02-28T12:13:38;17.50;62.70
61400;DHT22;47269;48.182;-1.946;2023-02-28T12:16:33;16.50;66.10
61400;DHT22;47269;48.182;-1.946;2023-02-28T12:19:11;18.30;63.80
61400;DHT22;47269;48.182;-1.946;2023-02-28T12:22:16;18.50;61.60
61400;DHT22;47269;48.182;-1.946;2023-02-28T12:27:19;16.50;61.60
61400;DHT22;47269;48.182;-1.946;2023-02-28T12:32:36;17.60;61.90
61400;DHT22;47269;48.182;-1.946;2023-02-28T12:35:12;17.10;60.50
61400;DHT22;47269;48.182;-1.946;2023-02-28T12:37:45;16.20;63.40
61400;DHT22;47269;48.182;-1.946;2023-02-28T12:40:21;16.70;63.60
61400;DHT22;47269;48.182;-1.946;2023-02-28T12:42:57;17.20;61.80
61400;DHT22;47269;48.182;-1.946;2023-02-28T12:45:59;16.90;63.50
61400;DHT22;47269;48.182;-1.946;2023-02-28T12:48:48;17.50;64.00
61400;DHT22;47269;48.182;-1.946;2023-02-28T12:51:16;18.00;63.40
61400;DHT22;47269;48.182;-1.946;2023-02-28T12:54:10;16.10;63.10
61400;DHT22;47269;48.182;-1.946;2023-02-28T13:07:55;16.80;63.90
61400;DHT22;47269;48.182;-1.946;2023-02-28T13:10:38;14.20;69.00
61400;DHT22;47269;48.182;-1.946;2023-02-28T13:13:04;12.60;75.20
61400;DHT22;47269;48.182;-1.946;2023-02-28T13:15:30;11.20;77.20
61400;DHT22;47269;48.182;-1.946;2023-02-28T13:18:00;10.70;81.50
61400;DHT22;47269;48.182;-1.946;2023-02-28T13:20:37;10.50;82.50
61400;DHT22;47269;48.182;-1.946;2023-02-28T13:24:04;10.40;85.70
61400;DHT22;47269;48.182;-1.946;2023-02-28T13:29:27;10.00;92.20
61400;DHT22;47269;48.182;-1.946;2023-02-28T13:39:57;10.30;93.40
61400;DHT22;47269;48.182;-1.946;2023-02-28T13:42:49;9.70;94.90
61400;DHT22;47269;48.182;-1.946;2023-02-28T13:45:26;9.80;98.50
61400;DHT22;47269;48.182;-1.946;2023-02-28T13:48:03;9.30;99.90
61400;DHT22;47269;48.182;-1.946;2023-02-28T13:50:33;8.90;99.90
61400;DHT22;47269;48.182;-1.946;2023-02-28T13:53:33;9.10;99.90
61400;DHT22;47269;48.182;-1.946;2023-02-28T13:56:19;8.80;99.90
61400;DHT22;47269;48.182;-1.946;2023-02-28T13:58:54;8.70;99.90
61400;DHT22;47269;48.182;-1.946;2023-02-28T14:04:39;8.40;99.90
61400;DHT22;47269;48.182;-1.946;2023-02-28T14:07:09;8.60;99.90
61400;DHT22;47269;48.182;-1.946;2023-02-28T14:09:46;8.30;99.90
61400;DHT22;47269;48.182;-1.946;2023-02-28T14:15:39;8.20;99.90
61400;DHT22;47269;48.182;-1.946;2023-02-28T14:18:21;7.90;99.90
61400;DHT22;47269;48.182;-1.946;2023-02-28T14:20:49;8.10;99.90
61400;DHT22;47269;48.182;-1.946;2023-02-28T14:31:53;7.60;99.90
61400;DHT22;47269;48.182;-1.946;2023-02-28T14:37:13;7.80;99.90
61400;DHT22;47269;48.182;-1.946;2023-02-28T14:39:42;7.80;99.90
61400;DHT22;47269;48.182;-1.946;2023-02-28T14:42:30;7.90;99.90
61400;DHT22;47269;48.182;-1.946;2023-02-28T14:44:57;7.70;99.90
61400;DHT22;47269;48.182;-1.946;2023-02-28T14:47:30;7.40;99.90
61400;DHT22;47269;48.182;-1.946;2023-02-28T14:49:58;7.30;99.90
61400;DHT22;47269;48.182;-1.946;2023-02-28T14:52:28;7.00;99.90
61400;DHT22;47269;48.182;-1.946;2023-02-28T14:54:59;6.90;99.90
61400;DHT22;47269;48.182;-1.946;2023-02-28T14:57:27;6.80;99.90
61400;DHT22;47269;48.182;-1.946;2023-02-28T15:02:40;6.90;99.90
61400;DHT22;47269;48.182;-1.946;2023-02-28T15:07:35;7.10;99.90
61400;DHT22;47269;48.182;-1.946;2023-02-28T15:10:20;7.00;99.90
61400;DHT22;47269;48.182;-1.946;2023-02-28T15:13:12;7.10;99.90
61400;DHT22;47269;48.182;-1.946;2023-02-28T15:15:58;7.10;99.90
61400;DHT22;47269;48.182;-1.946;2023-02-28T15:18:44;7.10;99.90
61400;DHT22;47269;48.182;-1.946;2023-02-28T15:23:55;7.30;99.90
61400;DHT22;47269;48.182;-1.946;2023-02-28T15:26:25;7.20;99.90
61400;DHT22;47269;48.182;-1.946;2023-02-28T15:29:01;7.30;99.90
61400;DHT22;47269;48.182;-1.946;2023-02-28T15:31:34;7.20;99.90
61400;DHT22;47269;48.182;-1.946;2023-02-28T15:34:05;7.30;99.90
61400;DHT22;47269;48.182;-1.946;2023-02-28T15:36:33;7.30;99.90
61400;DHT22;47269;48.182;-1.946;2023-02-28T15:39:16;7.20;99.90
61400;DHT22;47269;48.182;-1.946;2023-02-28T15:41:43;7.20;99.90
61400;DHT22;47269;48.182;-1.946;2023-02-28T15:44:22;7.10;99.90
61400;DHT22;47269;48.182;-1.946;2023-02-28T15:47:05;6.90;99.90
61400;DHT22;47269;48.182;-1.946;2023-02-28T15:49:46;6.80;99.90
61400;DHT22;47269;48.182;-1.946;2023-02-28T15:52:16;6.80;99.90
61400;DHT22;47269;48.182;-1.946;2023-02-28T15:54:43;6.90;99.90
61400;DHT22;47269;48.182;-1.946;2023-02-28T15:57:21;6.80;99.90
61400;DHT22;47269;48.182;-1.946;2023-02-28T15:59:54;7.00;99.90
61400;DHT22;47269;48.182;-1.946;2023-02-28T16:02:22;7.00;99.90
61400;DHT22;47269;48.182;-1.946;2023-02-28T16:07:36;6.80;99.90
61400;DHT22;47269;48.182;-1.946;2023-02-28T16:10:04;6.80;99.90
61400;DHT22;47269;48.182;-1.946;2023-02-28T16:12:32;6.70;99.90
61400;DHT22;47269;48.182;-1.946;2023-02-28T16:15:01;6.70;99.90
61400;DHT22;47269;48.182;-1.946;2023-02-28T16:17:33;6.60;99.90
61400;DHT22;47269;48.182;-1.946;2023-02-28T16:19:59;6.60;99.90
61400;DHT22;47269;48.182;-1.946;2023-02-28T16:22:25;6.50;99.90
61400;DHT22;47269;48.182;-1.946;2023-02-28T16:24:51;6.50;99.90
61400;DHT22;47269;48.182;-1.946;2023-02-28T16:27:21;6.50;99.90
61400;DHT22;47269;48.182;-1.946;2023-02-28T16:29:52;6.40;99.90
61400;DHT22;47269;48.182;-1.946;2023-02-28T16:32:18;6.30;99.90
61400;DHT22;47269;48.182;-1.946;2023-02-28T16:34:44;6.20;99.90
61400;DHT22;47269;48.182;-1.946;2023-02-28T16:37:12;6.30;99.90
61400;DHT22;47269;48.182;-1.946;2023-02-28T16:39:39;6.30;99.90
61400;DHT22;47269;48.182;-1.946;2023-02-28T16:42:18;6.30;99.90
61400;DHT22;47269;48.182;-1.946;2023-02-28T16:44:47;6.20;99.90
61400;DHT22;47269;48.182;-1.946;2023-02-28T16:47:12;6.20;99.90
61400;DHT22;47269;48.182;-1.946;2023-02-28T16:49:38;6.20;99.90
61400;DHT22;47269;48.182;-1.946;2023-02-28T16:52:07;6.10;99.90
61400;DHT22;47269;48.182;-1.946;2023-02-28T16:54:33;6.20;99.90
61400;DHT22;47269;48.182;-1.946;2023-02-28T16:56:59;6.20;99.90
61400;DHT22;47269;48.182;-1.946;2023-02-28T16:59:26;6.10;99.90
61400;DHT22;47269;48.182;-1.946;2023-02-28T17:01:53;6.10;99.90
61400;DHT22;47269;48.182;-1.946;2023-02-28T17:04:19;6.10;99.90
61400;DHT22;47269;48.182;-1.946;2023-02-28T17:06:45;6.10;99.90
61400;DHT22;47269;48.182;-1.946;2023-02-28T17:09:17;6.10;99.90
61400;DHT22;47269;48.182;-1.946;2023-02-28T17:11:46;6.10;99.90
61400;DHT22;47269;48.182;-1.946;2023-02-28T17:14:12;6.10;99.90
61400;DHT22;47269;48.182;-1.946;2023-02-28T17:16:39;6.00;99.90
61400;DHT22;47269;48.182;-1.946;2023-02-28T17:19:07;6.00;99.90
61400;DHT22;47269;48.182;-1.946;2023-02-28T17:21:36;6.10;99.90
61400;DHT22;47269;48.182;-1.946;2023-02-28T17:24:03;6.00;99.90
61400;DHT22;47269;48.182;-1.946;2023-02-28T17:26:29;6.10;99.90
61400;DHT22;47269;48.182;-1.946;2023-02-28T17:28:56;6.00;99.90
61400;DHT22;47269;48.182;-1.946;2023-02-28T17:31:23;5.90;99.90
61400;DHT22;47269;48.182;-1.946;2023-02-28T17:33:49;6.00;99.90
61400;DHT22;47269;48.182;-1.946;2023-02-28T17:36:17;6.00;99.90
61400;DHT22;47269;48.182;-1.946;2023-02-28T17:38:44;6.00;99.90
61400;DHT22;47269;48.182;-1.946;2023-02-28T17:41:11;6.00;99.90
61400;DHT22;47269;48.182;-1.946;2023-02-28T17:43:36;5.90;99.90
61400;DHT22;47269;48.182;-1.946;2023-02-28T17:46:02;5.80;99.90
61400;DHT22;47269;48.182;-1.946;2023-02-28T17:48:30;5.70;99.90
61400;DHT22;47269;48.182;-1.946;2023-02-28T17:50:56;5.70;99.90
61400;DHT22;47269;48.182;-1.946;2023-02-28T17:53:22;5.70;99.90
61400;DHT22;47269;48.182;-1.946;2023-02-28T17:55:49;5.80;99.90
61400;DHT22;47269;48.182;-1.946;2023-02-28T17:58:14;5.70;99.90
61400;DHT22;47269;48.182;-1.946;2023-02-28T18:00:40;5.80;99.90
61400;DHT22;47269;48.182;-1.946;2023-02-28T18:03:06;5.80;99.90
61400;DHT22;47269;48.182;-1.946;2023-02-28T18:05:32;5.70;99.90
61400;DHT22;47269;48.182;-1.946;2023-02-28T18:07:58;5.70;99.90
61400;DHT22;47269;48.182;-1.946;2023-02-28T18:10:23;5.80;99.90
61400;DHT22;47269;48.182;-1.946;2023-02-28T18:12:51;5.80;99.90
61400;DHT22;47269;48.182;-1.946;2023-02-28T18:15:18;5.80;99.90
61400;DHT22;47269;48.182;-1.946;2023-02-28T18:17:46;5.80;99.90
61400;DHT22;47269;48.182;-1.946;2023-02-28T18:20:12;5.80;99.90
61400;DHT22;47269;48.182;-1.946;2023-02-28T18:22:39;5.80;99.90
61400;DHT22;47269;48.182;-1.946;2023-02-28T18:25:05;5.70;99.90
61400;DHT22;47269;48.182;-1.946;2023-02-28T18:27:32;5.80;99.90
61400;DHT22;47269;48.182;-1.946;2023-02-28T18:29:57;5.80;99.90
61400;DHT22;47269;48.182;-1.946;2023-02-28T18:32:23;5.90;99.90
61400;DHT22;47269;48.182;-1.946;2023-02-28T18:34:49;5.90;99.90
61400;DHT22;47269;48.182;-1.946;2023-02-28T18:37:15;5.80;99.90
61400;DHT22;47269;48.182;-1.946;2023-02-28T18:39:43;5.70;99.90
61400;DHT22;47269;48.182;-1.946;2023-02-28T18:42:09;5.80;99.90
61400;DHT22;47269;48.182;-1.946;2023-02-28T18:44:36;5.80;99.90
61400;DHT22;47269;48.182;-1.946;2023-02-28T18:47:02;5.80;99.90
61400;DHT22;47269;48.182;-1.946;2023-02-28T18:49:29;5.80;99.90
61400;DHT22;47269;48.182;-1.946;2023-02-28T18:51:56;5.80;99.90
61400;DHT22;47269;48.182;-1.946;2023-02-28T18:54:22;5.90;99.90
61400;DHT22;47269;48.182;-1.946;2023-02-28T18:56:48;5.90;99.90
61400;DHT22;47269;48.182;-1.946;2023-02-28T18:59:15;5.80;99.90
61400;DHT22;47269;48.182;-1.946;2023-02-28T19:01:41;5.80;99.90
61400;DHT22;47269;48.182;-1.946;2023-02-28T19:04:09;5.80;99.90
61400;DHT22;47269;48.182;-1.946;2023-02-28T19:06:36;5.80;99.90
61400;DHT22;47269;48.182;-1.946;2023-02-28T19:09:03;5.90;99.90
61400;DHT22;47269;48.182;-1.946;2023-02-28T19:11:29;5.90;99.90
61400;DHT22;47269;48.182;-1.946;2023-02-28T19:13:55;5.80;99.90
61400;DHT22;47269;48.182;-1.946;2023-02-28T19:16:21;5.90;99.90
61400;DHT22;47269;48.182;-1.946;2023-02-28T19:18:47;5.90;99.90
61400;DHT22;47269;48.182;-1.946;2023-02-28T19:21:14;5.90;99.90
61400;DHT22;47269;48.182;-1.946;2023-02-28T19:23:40;5.90;99.90
61400;DHT22;47269;48.182;-1.946;2023-02-28T19:26:15;5.90;99.90
61400;DHT22;47269;48.182;-1.946;2023-02-28T19:28:41;5.90;99.90
61400;DHT22;47269;48.182;-1.946;2023-02-28T19:31:14;5.90;99.90
61400;DHT22;47269;48.182;-1.946;2023-02-28T19:33:41;5.90;99.90
61400;DHT22;47269;48.182;-1.946;2023-02-28T19:36:07;5.90;99.90
61400;DHT22;47269;48.182;-1.946;2023-02-28T19:38:35;5.80;99.90
61400;DHT22;47269;48.182;-1.946;2023-02-28T19:41:07;5.80;99.90
61400;DHT22;47269;48.182;-1.946;2023-02-28T19:43:34;5.50;99.90
61400;DHT22;47269;48.182;-1.946;2023-02-28T19:45:59;5.10;99.90
61400;DHT22;47269;48.182;-1.946;2023-02-28T19:48:25;4.90;99.90
61400;DHT22;47269;48.182;-1.946;2023-02-28T19:51:04;4.60;99.90
61400;DHT22;47269;48.182;-1.946;2023-02-28T19:53:32;4.10;99.90
61400;DHT22;47269;48.182;-1.946;2023-02-28T19:55:58;4.00;99.90
61400;DHT22;47269;48.182;-1.946;2023-02-28T19:58:25;4.00;99.90
61400;DHT22;47269;48.182;-1.946;2023-02-28T20:00:51;3.80;99.90
61400;DHT22;47269;48.182;-1.946;2023-02-28T20:03:17;3.80;99.90
61400;DHT22;47269;48.182;-1.946;2023-02-28T20:05:43;3.70;99.90
61400;DHT22;47269;48.182;-1.946;2023-02-28T20:08:09;3.80;99.90
61400;DHT22;47269;48.182;-1.946;2023-02-28T20:10:36;3.80;99.90
61400;DHT22;47269;48.182;-1.946;2023-02-28T20:13:01;3.80;99.90
61400;DHT22;47269;48.182;-1.946;2023-02-28T20:15:28;3.60;99.90
61400;DHT22;47269;48.182;-1.946;2023-02-28T20:17:54;3.70;99.90
61400;DHT22;47269;48.182;-1.946;2023-02-28T20:20:22;3.60;99.90
61400;DHT22;47269;48.182;-1.946;2023-02-28T20:22:48;3.70;99.90
61400;DHT22;47269;48.182;-1.946;2023-02-28T20:25:14;3.70;99.90
61400;DHT22;47269;48.182;-1.946;2023-02-28T20:27:41;3.60;99.90
61400;DHT22;47269;48.182;-1.946;2023-02-28T20:30:08;3.70;99.90
61400;DHT22;47269;48.182;-1.946;2023-02-28T20:32:34;3.40;99.90
61400;DHT22;47269;48.182;-1.946;2023-02-28T20:35:04;3.40;99.90
61400;DHT22;47269;48.182;-1.946;2023-02-28T20:37:30;3.40;99.90
61400;DHT22;47269;48.182;-1.946;2023-02-28T20:39:55;3.50;99.90
61400;DHT22;47269;48.182;-1.946;2023-02-28T20:42:21;3.40;99.90
61400;DHT22;47269;48.182;-1.946;2023-02-28T20:44:47;3.30;99.90
61400;DHT22;47269;48.182;-1.946;2023-02-28T20:47:13;3.40;99.90
61400;DHT22;47269;48.182;-1.946;2023-02-28T20:49:38;3.30;99.90
61400;DHT22;47269;48.182;-1.946;2023-02-28T20:52:04;3.20;99.90
61400;DHT22;47269;48.182;-1.946;2023-02-28T20:54:30;2.90;99.90
61400;DHT22;47269;48.182;-1.946;2023-02-28T20:56:56;2.80;99.90
61400;DHT22;47269;48.182;-1.946;2023-02-28T20:59:22;2.90;99.90
61400;DHT22;47269;48.182;-1.946;2023-02-28T21:01:47;2.80;99.90
61400;DHT22;47269;48.182;-1.946;2023-02-28T21:04:13;2.80;99.90
61400;DHT22;47269;48.182;-1.946;2023-02-28T21:06:41;2.90;99.90
61400;DHT22;47269;48.182;-1.946;2023-02-28T21:09:13;2.80;99.90
61400;DHT22;47269;48.182;-1.946;2023-02-28T21:11:39;3.00;99.90
61400;DHT22;47269;48.182;-1.946;2023-02-28T21:14:07;3.10;99.90
61400;DHT22;47269;48.182;-1.946;2023-02-28T21:16:34;2.90;99.90
61400;DHT22;47269;48.182;-1.946;2023-02-28T21:19:00;2.80;99.90
61400;DHT22;47269;48.182;-1.946;2023-02-28T21:21:34;2.90;99.90
61400;DHT22;47269;48.182;-1.946;2023-02-28T21:24:00;3.00;99.90
61400;DHT22;47269;48.182;-1.946;2023-02-28T21:26:26;3.10;99.90
61400;DHT22;47269;48.182;-1.946;2023-02-28T21:28:57;3.10;99.90
61400;DHT22;47269;48.182;-1.946;2023-02-28T21:31:25;3.10;99.90
61400;DHT22;47269;48.182;-1.946;2023-02-28T21:33:56;3.00;99.90
61400;DHT22;47269;48.182;-1.946;2023-02-28T21:36:24;3.10;99.90
61400;DHT22;47269;48.182;-1.946;2023-02-28T21:38:55;3.10;99.90
61400;DHT22;47269;48.182;-1.946;2023-02-28T21:41:22;3.20;99.90
61400;DHT22;47269;48.182;-1.946;2023-02-28T21:43:48;3.20;99.90
61400;DHT22;47269;48.182;-1.946;2023-02-28T21:46:20;3.20;99.90
61400;DHT22;47269;48.182;-1.946;2023-02-28T21:48:47;3.10;99.90
61400;DHT22;47269;48.182;-1.946;2023-02-28T21:51:18;3.00;99.90
61400;DHT22;47269;48.182;-1.946;2023-02-28T21:53:44;2.80;99.90
61400;DHT22;47269;48.182;-1.946;2023-02-28T21:56:13;2.80;99.90
61400;DHT22;47269;48.182;-1.946;2023-02-28T21:58:39;2.70;99.90
61400;DHT22;47269;48.182;-1.946;2023-02-28T22:01:07;2.60;99.90
61400;DHT22;47269;48.182;-1.946;2023-02-28T22:03:33;2.50;99.90
61400;DHT22;47269;48.182;-1.946;2023-02-28T22:05:59;2.50;99.90
61400;DHT22;47269;48.182;-1.946;2023-02-28T22:08:25;2.50;99.90
61400;DHT22;47269;48.182;-1.946;2023-02-28T22:10:51;2.40;99.90
61400;DHT22;47269;48.182;-1.946;2023-02-28T22:13:19;2.30;99.90
61400;DHT22;47269;48.182;-1.946;2023-02-28T22:15:45;2.30;99.90
61400;DHT22;47269;48.182;-1.946;2023-02-28T22:18:10;2.30;99.90
61400;DHT22;47269;48.182;-1.946;2023-02-28T22:20:36;2.20;99.90
61400;DHT22;47269;48.182;-1.946;2023-02-28T22:23:02;2.20;99.90
61400;DHT22;47269;48.182;-1.946;2023-02-28T22:25:28;2.20;99.90
61400;DHT22;47269;48.182;-1.946;2023-02-28T22:27:53;2.10;99.90
61400;DHT22;47269;48.182;-1.946;2023-02-28T22:30:19;2.10;99.90
61400;DHT22;47269;48.182;-1.946;2023-02-28T22:32:45;2.00;99.90
61400;DHT22;47269;48.182;-1.946;2023-02-28T22:35:11;1.90;99.90
61400;DHT22;47269;48.182;-1.946;2023-02-28T22:37:36;2.00;99.90
61400;DHT22;47269;48.182;-1.946;2023-02-28T22:40:02;2.00;99.90
61400;DHT22;47269;48.182;-1.946;2023-02-28T22:42:32;2.00;99.90
61400;DHT22;47269;48.182;-1.946;2023-02-28T22:44:57;2.00;99.90
61400;DHT22;47269;48.182;-1.946;2023-02-28T22:47:23;1.90;99.90
61400;DHT22;47269;48.182;-1.946;2023-02-28T22:49:50;1.90;99.90
61400;DHT22;47269;48.182;-1.946;2023-02-28T22:52:16;2.00;99.90
61400;DHT22;47269;48.182;-1.946;2023-02-28T22:54:42;2.10;99.90
61400;DHT22;47269;48.182;-1.946;2023-02-28T22:57:08;2.00;99.90
61400;DHT22;47269;48.182;-1.946;2023-02-28T22:59:33;2.00;99.90
